createdAt,value
2022-12-18T00:01:22.439Z,12.57
2022-12-18T00:03:49.908Z,10.10
2022-12-18T00:06:16.838Z,10.95
2022-12-18T00:08:44.736Z,9.35
2022-12-18T00:11:20.857Z,12.05
2022-12-18T00:13:48.306Z,14.82
2022-12-18T00:16:19.578Z,14.25
2022-12-18T00:18:46.508Z,13.98
2022-12-18T00:21:14.177Z,14.63
2022-12-18T00:23:43.739Z,15.88
2022-12-18T00:26:16.437Z,17.40
2022-12-18T00:28:44.444Z,16.60
2022-12-18T00:31:14.342Z,12.30
2022-12-18T00:33:41.497Z,11.00
2022-12-18T00:36:15.847Z,13.23
2022-12-18T00:38:42.852Z,13.50
2022-12-18T00:41:12.109Z,9.68
2022-12-18T00:43:40.831Z,14.73
2022-12-18T00:46:08.066Z,16.77
2022-12-18T00:48:34.840Z,21.88
2022-12-18T00:51:01.906Z,25.23
2022-12-18T00:53:28.626Z,25.08
2022-12-18T00:55:56.563Z,22.20
2022-12-18T00:58:23.533Z,21.85
2022-12-18T01:00:51.163Z,17.27
2022-12-18T01:03:18.062Z,18.45
2022-12-18T01:05:44.920Z,17.17
2022-12-18T01:08:12.056Z,14.52
2022-12-18T01:10:42.466Z,12.32
2022-12-18T01:13:09.717Z,12.32
2022-12-18T01:15:37.026Z,12.15
2022-12-18T01:18:03.800Z,10.02
2022-12-18T01:20:30.751Z,13.85
2022-12-18T01:22:58.285Z,11.43
2022-12-18T01:25:25.019Z,12.63
2022-12-18T01:27:51.961Z,27.40
2022-12-18T01:30:18.714Z,21.00
2022-12-18T01:32:45.858Z,24.33
2022-12-18T01:35:12.584Z,17.70
2022-12-18T01:37:39.534Z,17.05
2022-12-18T01:40:07.010Z,14.38
2022-12-18T01:42:34.514Z,17.80
2022-12-18T01:45:13.412Z,14.48
2022-12-18T01:47:53.533Z,14.07
2022-12-18T01:50:25.470Z,11.95
2022-12-18T01:53:03.291Z,11.52
2022-12-18T01:55:36.064Z,15.82
2022-12-18T01:58:03.268Z,17.08
2022-12-18T02:00:30.840Z,18.02
2022-12-18T02:02:57.916Z,16.98
2022-12-18T02:05:59.391Z,17.48
2022-12-18T02:08:46.974Z,19.50
2022-12-18T02:11:27.028Z,16.42
2022-12-18T02:14:11.781Z,14.68
2022-12-18T02:16:38.558Z,15.13
2022-12-18T02:19:38.014Z,13.52
2022-12-18T02:22:35.805Z,14.98
2022-12-18T02:25:14.122Z,12.15
2022-12-18T02:27:42.915Z,15.43
2022-12-18T02:30:10.188Z,17.63
2022-12-18T02:32:46.989Z,13.23
2022-12-18T02:35:26.904Z,11.73
2022-12-18T02:37:57.643Z,14.73
2022-12-18T02:40:27.274Z,12.52
2022-12-18T02:42:54.277Z,15.13
2022-12-18T02:45:21.317Z,10.50
2022-12-18T02:47:50.516Z,13.48
2022-12-18T02:50:38.913Z,13.20
2022-12-18T02:53:19.155Z,13.60
2022-12-18T02:56:10.805Z,14.95
2022-12-18T02:58:44.864Z,12.40
2022-12-18T03:01:58.357Z,15.05
2022-12-18T03:05:21.867Z,14.93
2022-12-18T03:08:06.462Z,17.30
2022-12-18T03:10:43.783Z,16.27
2022-12-18T03:13:16.560Z,17.65
2022-12-18T03:15:54.094Z,14.80
2022-12-18T03:18:25.807Z,13.60
2022-12-18T03:20:56.993Z,15.27
2022-12-18T03:23:28.486Z,13.40
2022-12-18T03:26:05.857Z,16.25
2022-12-18T03:28:59.180Z,15.70
2022-12-18T03:31:30.180Z,14.68
2022-12-18T03:34:05.278Z,13.75
2022-12-18T03:36:41.375Z,16.13
2022-12-18T03:39:08.822Z,13.32
2022-12-18T03:42:02.601Z,14.45
2022-12-18T03:44:58.842Z,14.18
2022-12-18T03:47:47.721Z,14.20
2022-12-18T03:50:23.263Z,16.45
2022-12-18T03:52:57.087Z,14.73
2022-12-18T03:55:26.786Z,13.27
2022-12-18T03:58:00.739Z,12.80
2022-12-18T04:00:35.689Z,13.82
2022-12-18T04:03:09.964Z,14.23
2022-12-18T04:05:44.409Z,12.82
2022-12-18T04:08:11.632Z,11.50
2022-12-18T04:10:43.086Z,11.82
2022-12-18T04:13:10.638Z,12.80
2022-12-18T04:15:38.670Z,15.90
2022-12-18T04:18:09.346Z,15.65
2022-12-18T04:20:40.146Z,12.52
2022-12-18T04:23:08.825Z,12.15
2022-12-18T04:25:35.544Z,11.65
2022-12-18T04:28:12.108Z,13.25
2022-12-18T04:30:39.459Z,13.75
2022-12-18T04:33:13.284Z,11.48
2022-12-18T04:35:43.230Z,14.80
2022-12-18T04:38:10.923Z,12.45
2022-12-18T04:40:39.463Z,11.45
2022-12-18T04:43:14.694Z,12.75
2022-12-18T04:45:41.485Z,13.90
2022-12-18T04:48:08.434Z,14.20
2022-12-18T04:50:35.170Z,12.57
2022-12-18T04:53:02.044Z,10.65
2022-12-18T04:55:29.220Z,11.40
2022-12-18T04:57:56.372Z,11.50
2022-12-18T05:00:23.524Z,15.25
2022-12-18T05:02:50.693Z,15.70
2022-12-18T05:05:17.987Z,17.90
2022-12-18T05:07:47.055Z,15.52
2022-12-18T05:10:14.612Z,14.07
2022-12-18T05:12:59.626Z,14.57
2022-12-18T05:15:32.722Z,12.18
2022-12-18T05:18:00.369Z,12.25
2022-12-18T05:20:28.541Z,12.50
2022-12-18T05:22:56.924Z,11.57
2022-12-18T05:25:24.485Z,17.38
2022-12-18T05:27:51.305Z,15.45
2022-12-18T05:30:18.240Z,12.63
2022-12-18T05:32:45.145Z,14.73
2022-12-18T05:35:12.383Z,14.98
2022-12-18T05:37:43.149Z,13.05
2022-12-18T05:40:11.387Z,15.65
2022-12-18T05:42:38.455Z,15.20
2022-12-18T05:45:06.462Z,12.85
2022-12-18T05:47:33.635Z,12.13
2022-12-18T05:50:00.431Z,12.68
2022-12-18T05:52:27.288Z,10.15
2022-12-18T05:54:54.440Z,13.68
2022-12-18T05:57:21.233Z,12.18
2022-12-18T05:59:48.389Z,12.52
2022-12-18T06:02:15.265Z,15.30
2022-12-18T06:04:42.144Z,13.27
2022-12-18T06:07:09.110Z,13.07
2022-12-18T06:09:36.027Z,15.25
2022-12-18T06:12:02.890Z,11.27
2022-12-18T06:14:29.819Z,14.13
2022-12-18T06:16:56.611Z,13.00
2022-12-18T06:19:23.544Z,10.40
2022-12-18T06:21:50.518Z,12.25
2022-12-18T06:24:17.361Z,12.63
2022-12-18T06:26:44.203Z,11.13
2022-12-18T06:29:11.157Z,11.85
2022-12-18T06:31:38.575Z,9.00
2022-12-18T06:34:06.112Z,9.45
2022-12-18T06:36:33.253Z,7.50
2022-12-18T06:39:00.229Z,9.32
2022-12-18T06:41:27.405Z,9.68
2022-12-18T06:43:59.429Z,11.48
2022-12-18T06:46:28.466Z,10.07
2022-12-18T06:48:55.132Z,8.57
2022-12-18T06:51:23.870Z,9.30
2022-12-18T06:53:50.874Z,12.02
2022-12-18T06:56:17.964Z,9.73
2022-12-18T06:58:44.873Z,9.77
2022-12-18T07:01:13.100Z,11.07
2022-12-18T07:03:42.256Z,11.18
2022-12-18T07:06:22.630Z,10.27
2022-12-18T07:08:50.794Z,11.30
2022-12-18T07:11:18.034Z,12.30
2022-12-18T07:13:45.536Z,9.25
2022-12-18T07:16:24.298Z,15.52
2022-12-18T07:18:52.059Z,11.65
2022-12-18T07:21:20.810Z,14.75
2022-12-18T07:23:49.075Z,15.30
2022-12-18T07:26:18.677Z,13.77
2022-12-18T07:28:45.571Z,12.57
2022-12-18T07:31:15.851Z,10.52
2022-12-18T07:33:43.330Z,14.32
2022-12-18T07:36:11.614Z,11.75
2022-12-18T07:38:39.335Z,13.10
2022-12-18T07:41:08.306Z,13.00
2022-12-18T07:43:35.893Z,10.98
2022-12-18T07:46:03.257Z,15.20
2022-12-18T07:48:30.479Z,12.18
2022-12-18T07:51:05.150Z,10.98
2022-12-18T07:53:33.716Z,14.57
2022-12-18T07:56:26.380Z,14.80
2022-12-18T07:58:50.112Z,12.68
2022-12-18T08:01:16.996Z,14.18
2022-12-18T08:03:44.282Z,12.85
2022-12-18T08:06:11.136Z,10.77
2022-12-18T08:08:38.545Z,13.27
2022-12-18T08:11:05.476Z,13.93
2022-12-18T08:13:32.444Z,17.55
2022-12-18T08:16:06.102Z,14.20
2022-12-18T08:18:37.802Z,12.80
2022-12-18T08:21:16.117Z,15.65
2022-12-18T08:23:44.057Z,14.70
2022-12-18T08:26:12.306Z,15.82
2022-12-18T08:28:39.834Z,16.70
2022-12-18T08:31:07.358Z,13.10
2022-12-18T08:33:35.522Z,15.95
2022-12-18T08:36:03.311Z,13.77
2022-12-18T08:38:30.118Z,18.27
2022-12-18T08:41:05.374Z,24.45
2022-12-18T08:43:51.351Z,31.20
2022-12-18T08:46:19.823Z,28.88
2022-12-18T08:48:47.548Z,24.80
2022-12-18T08:51:16.678Z,26.10
2022-12-18T08:53:43.975Z,24.58
2022-12-18T08:56:11.115Z,20.20
2022-12-18T08:58:38.127Z,19.67
2022-12-18T09:01:07.602Z,19.23
2022-12-18T09:03:34.702Z,19.13
2022-12-18T09:06:01.872Z,19.83
2022-12-18T09:08:29.764Z,17.85
2022-12-18T09:10:57.045Z,18.42
2022-12-18T09:13:24.094Z,17.17
2022-12-18T09:15:53.461Z,17.15
2022-12-18T09:18:21.723Z,15.63
2022-12-18T09:20:49.005Z,17.20
2022-12-18T09:23:15.842Z,15.25
2022-12-18T09:25:42.796Z,15.90
2022-12-18T09:28:18.525Z,15.30
2022-12-18T09:30:50.496Z,12.90
2022-12-18T09:33:18.134Z,14.47
2022-12-18T09:35:46.332Z,13.67
2022-12-18T09:38:16.040Z,13.80
2022-12-18T09:40:54.838Z,15.23
2022-12-18T09:43:29.296Z,15.97
2022-12-18T09:46:05.958Z,16.60
2022-12-18T09:48:39.600Z,12.90
2022-12-18T09:51:20.335Z,16.83
2022-12-18T09:53:57.217Z,13.40
2022-12-18T09:56:26.698Z,12.40
2022-12-18T09:58:59.274Z,11.70
2022-12-18T10:01:34.026Z,10.00
2022-12-18T10:04:09.373Z,14.60
2022-12-18T10:06:55.310Z,12.93
2022-12-18T10:09:31.079Z,11.10
2022-12-18T10:12:26.508Z,12.17
2022-12-18T10:15:02.682Z,10.87
2022-12-18T10:17:57.212Z,11.90
2022-12-18T10:20:44.659Z,13.13
2022-12-18T10:23:34.306Z,10.27
2022-12-18T10:26:07.283Z,11.10
2022-12-18T10:28:40.323Z,11.30
2022-12-18T10:31:10.966Z,11.43
2022-12-18T10:33:39.228Z,13.10
2022-12-18T10:36:07.237Z,13.77
2022-12-18T10:38:35.016Z,12.80
2022-12-18T10:41:05.779Z,13.43
2022-12-18T10:43:36.286Z,13.83
2022-12-18T10:46:14.212Z,12.43
2022-12-18T10:48:42.741Z,14.30
2022-12-18T10:51:12.952Z,14.70
2022-12-18T10:53:43.607Z,21.47
2022-12-18T10:56:11.013Z,22.30
2022-12-18T10:58:40.013Z,22.97
2022-12-18T11:01:13.221Z,19.27
2022-12-18T11:04:02.306Z,19.77
2022-12-18T11:06:30.288Z,16.70
2022-12-18T11:09:19.587Z,16.87
2022-12-18T11:11:53.290Z,15.53
2022-12-18T11:14:26.506Z,13.50
2022-12-18T11:17:24.517Z,14.60
2022-12-18T11:19:46.711Z,12.67
2022-12-18T11:22:30.134Z,11.23
2022-12-18T11:28:02.160Z,11.27
2022-12-18T11:30:30.524Z,12.47
2022-12-18T11:33:11.993Z,11.27
2022-12-18T11:35:50.251Z,11.97
2022-12-18T11:38:29.870Z,13.60
2022-12-18T11:41:03.054Z,10.97
2022-12-18T11:43:36.678Z,11.50
2022-12-18T11:46:17.640Z,11.10
2022-12-18T11:48:50.719Z,10.67
2022-12-18T11:51:30.770Z,11.27
2022-12-18T11:53:58.224Z,10.63
2022-12-18T11:56:36.083Z,9.73
2022-12-18T11:59:44.314Z,10.47
2022-12-18T12:02:25.118Z,9.93
2022-12-18T12:05:02.104Z,14.60
2022-12-18T12:07:42.155Z,17.20
2022-12-18T12:10:43.636Z,16.77
2022-12-18T12:13:25.093Z,13.97
2022-12-18T12:16:12.761Z,14.77
2022-12-18T12:18:43.320Z,14.73
2022-12-18T12:21:16.361Z,13.47
2022-12-18T12:23:54.900Z,15.30
2022-12-18T12:26:28.258Z,13.87
2022-12-18T12:28:54.970Z,13.93
2022-12-18T12:31:28.792Z,11.63
2022-12-18T12:34:10.765Z,10.70
2022-12-18T12:37:21.945Z,11.80
2022-12-18T12:39:49.411Z,11.47
2022-12-18T12:43:01.144Z,10.73
2022-12-18T12:45:35.599Z,11.77
2022-12-18T12:48:06.212Z,11.50
2022-12-18T12:50:35.249Z,12.37
2022-12-18T12:53:07.472Z,10.03
2022-12-18T12:55:35.284Z,9.63
2022-12-18T12:58:15.672Z,11.03
2022-12-18T13:01:23.311Z,12.27
2022-12-18T13:04:04.010Z,10.33
2022-12-18T13:06:44.646Z,10.80
2022-12-18T13:09:12.264Z,10.30
2022-12-18T13:12:00.958Z,12.67
2022-12-18T13:14:30.441Z,11.03
2022-12-18T13:17:26.082Z,10.77
2022-12-18T13:20:11.143Z,11.20
2022-12-18T13:22:50.230Z,11.43
2022-12-18T13:25:33.726Z,11.23
2022-12-18T13:28:06.722Z,12.10
2022-12-18T13:30:33.353Z,12.27
2022-12-18T13:33:15.309Z,14.37
2022-12-18T13:35:48.237Z,11.30
2022-12-18T13:38:33.270Z,12.10
2022-12-18T13:41:01.742Z,10.70
2022-12-18T13:43:49.709Z,13.20
2022-12-18T13:46:28.010Z,15.47
2022-12-18T13:49:05.578Z,13.10
2022-12-18T13:51:35.788Z,11.57
2022-12-18T13:54:21.618Z,12.30
2022-12-18T13:56:49.949Z,12.30
2022-12-18T13:59:35.907Z,13.50
2022-12-18T14:02:14.797Z,13.67
2022-12-18T14:04:46.839Z,12.83
2022-12-18T14:07:20.073Z,14.70
2022-12-18T14:09:52.316Z,13.13
2022-12-18T14:12:51.628Z,15.07
2022-12-18T14:15:24.902Z,14.03
2022-12-18T14:17:59.527Z,13.93
2022-12-18T14:20:29.482Z,13.87
2022-12-18T14:22:58.376Z,13.37
2022-12-18T14:25:30.841Z,17.23
2022-12-18T14:28:14.303Z,20.97
2022-12-18T14:30:43.538Z,16.77
2022-12-18T14:33:15.166Z,20.83
2022-12-18T14:35:53.053Z,18.50
2022-12-18T14:38:19.735Z,19.17
2022-12-18T14:40:46.587Z,16.17
2022-12-18T14:43:13.905Z,20.00
2022-12-18T14:45:44.007Z,18.90
2022-12-18T14:48:35.995Z,17.73
2022-12-18T14:51:24.446Z,17.33
2022-12-18T14:54:01.236Z,22.50
2022-12-18T14:56:31.177Z,20.03
2022-12-18T14:59:00.848Z,18.17
2022-12-18T15:01:37.328Z,16.13
2022-12-18T15:04:06.543Z,18.67
2022-12-18T15:06:39.695Z,16.37
2022-12-18T15:09:23.862Z,16.37
2022-12-18T15:11:56.055Z,18.00
2022-12-18T15:14:23.952Z,16.70
2022-12-18T15:16:55.801Z,17.80
2022-12-18T15:19:28.272Z,17.07
2022-12-18T15:21:55.141Z,16.53
2022-12-18T15:24:28.236Z,18.60
2022-12-18T15:26:54.988Z,18.07
2022-12-18T15:29:26.155Z,17.87
2022-12-18T15:32:06.617Z,18.00
2022-12-18T15:34:34.965Z,20.73
2022-12-18T15:37:01.771Z,18.97
2022-12-18T15:39:28.771Z,18.57
2022-12-18T15:42:13.940Z,16.73
2022-12-18T15:44:40.941Z,19.03
2022-12-18T15:47:14.293Z,17.57
2022-12-18T15:49:41.424Z,18.27
2022-12-18T15:52:13.208Z,19.53
2022-12-18T15:54:58.755Z,18.37
2022-12-18T15:57:25.489Z,18.40
2022-12-18T16:00:00.460Z,18.83
2022-12-18T16:02:28.743Z,18.57
2022-12-18T16:04:55.629Z,20.33
2022-12-18T16:07:23.066Z,18.03
2022-12-18T16:09:51.951Z,21.33
2022-12-18T16:12:24.793Z,17.80
2022-12-18T16:14:51.640Z,19.50
2022-12-18T16:17:18.913Z,19.07
2022-12-18T16:19:45.931Z,19.43
2022-12-18T16:22:21.091Z,21.00
2022-12-18T16:24:48.170Z,17.97
2022-12-18T16:27:15.069Z,21.50
2022-12-18T16:29:41.757Z,19.80
2022-12-18T16:32:15.583Z,19.60
2022-12-18T16:34:43.074Z,20.77
2022-12-18T16:37:11.584Z,20.03
2022-12-18T16:39:39.394Z,22.30
2022-12-18T16:42:20.294Z,20.30
2022-12-18T16:44:48.853Z,19.87
2022-12-18T16:47:16.043Z,20.20
2022-12-18T16:49:45.809Z,20.70
2022-12-18T16:52:13.971Z,19.53
2022-12-18T16:54:40.828Z,20.40
2022-12-18T16:57:09.304Z,20.37
2022-12-18T16:59:36.291Z,22.17
2022-12-18T17:02:07.425Z,20.50
2022-12-18T17:04:34.893Z,19.33
2022-12-18T17:07:01.818Z,22.77
2022-12-18T17:09:28.535Z,21.73
2022-12-18T17:11:55.988Z,25.23
2022-12-18T17:14:25.362Z,21.93
2022-12-18T17:17:19.724Z,19.17
2022-12-18T17:19:40.238Z,22.57
2022-12-18T17:22:08.284Z,21.60
2022-12-18T17:24:35.791Z,24.50
2022-12-18T17:27:03.785Z,25.50
2022-12-18T17:29:30.819Z,22.40
2022-12-18T17:31:57.697Z,21.47
2022-12-18T17:34:27.427Z,23.83
2022-12-18T17:36:54.390Z,24.60
2022-12-18T17:39:21.769Z,26.30
2022-12-18T17:41:49.338Z,22.43
2022-12-18T17:44:16.987Z,27.37
2022-12-18T17:46:44.325Z,22.90
2022-12-18T17:49:11.792Z,23.27
2022-12-18T17:51:39.005Z,24.33
2022-12-18T17:54:06.589Z,24.97
2022-12-18T17:56:33.460Z,23.40
2022-12-18T17:59:00.967Z,24.00
2022-12-18T18:01:28.163Z,23.10
2022-12-18T18:04:00.187Z,25.70
2022-12-18T18:06:27.648Z,26.03
2022-12-18T18:08:54.762Z,28.33
2022-12-18T18:11:42.173Z,24.00
2022-12-18T18:14:20.228Z,26.90
2022-12-18T18:16:49.508Z,26.33
2022-12-18T18:19:19.866Z,24.47
2022-12-18T18:21:48.447Z,34.13
2022-12-18T18:24:18.316Z,31.73
2022-12-18T18:26:49.327Z,29.73
2022-12-18T18:29:19.607Z,26.10
2022-12-18T18:31:47.872Z,24.37
2022-12-18T18:34:16.908Z,26.07
2022-12-18T18:36:45.442Z,28.07
2022-12-18T18:39:13.037Z,23.97
2022-12-18T18:41:39.768Z,25.23
2022-12-18T18:44:06.987Z,25.93
2022-12-18T18:46:33.739Z,24.07
2022-12-18T18:49:00.880Z,24.17
2022-12-18T18:51:33.033Z,23.53
2022-12-18T18:54:01.530Z,22.53
2022-12-18T18:59:15.768Z,20.83
2022-12-18T19:01:42.988Z,22.10
2022-12-18T19:04:10.401Z,20.80
2022-12-18T19:06:37.183Z,22.00
2022-12-18T19:09:04.949Z,26.30
2022-12-18T19:11:50.587Z,22.17
2022-12-18T19:14:17.627Z,21.10
2022-12-18T19:16:45.540Z,23.23
2022-12-18T19:19:13.751Z,20.47
2022-12-18T19:21:40.962Z,19.30
2022-12-18T19:24:08.058Z,21.03
2022-12-18T19:26:37.636Z,24.77
2022-12-18T19:29:09.238Z,20.93
2022-12-18T19:31:37.341Z,22.90
2022-12-18T19:34:06.964Z,21.73
2022-12-18T19:36:36.899Z,21.17
2022-12-18T19:39:14.034Z,22.87
2022-12-18T19:41:41.483Z,22.00
2022-12-18T19:44:10.427Z,20.00
2022-12-18T19:46:41.839Z,21.97
2022-12-18T19:49:10.781Z,21.17
2022-12-18T19:51:38.149Z,18.63
2022-12-18T19:54:05.938Z,23.13
2022-12-18T19:56:35.113Z,23.03
2022-12-18T19:59:03.797Z,21.83
2022-12-18T20:01:31.800Z,22.53
2022-12-18T20:03:59.792Z,23.40
2022-12-18T20:06:49.007Z,23.30
2022-12-18T20:09:17.287Z,21.17
2022-12-18T20:11:45.110Z,23.93
2022-12-18T20:14:13.361Z,26.37
2022-12-18T20:16:40.888Z,22.23
2022-12-18T20:19:08.552Z,23.27
2022-12-18T20:21:37.034Z,23.97
2022-12-18T20:24:03.975Z,22.70
2022-12-18T20:26:30.861Z,25.07
2022-12-18T20:28:57.694Z,22.70
2022-12-18T20:31:25.069Z,25.03
2022-12-18T20:33:52.253Z,25.03
2022-12-18T20:36:26.019Z,25.60
2022-12-18T20:38:57.228Z,24.50
2022-12-18T20:41:27.323Z,26.00
2022-12-18T20:44:03.352Z,23.43
2022-12-18T20:46:30.105Z,25.17
2022-12-18T20:48:57.213Z,22.83
2022-12-18T20:51:24.056Z,25.27
2022-12-18T20:53:51.032Z,25.03
2022-12-18T20:56:21.895Z,26.03
2022-12-18T20:58:50.340Z,24.47
2022-12-18T21:01:21.291Z,23.03
2022-12-18T21:03:48.844Z,22.20
2022-12-18T21:06:18.152Z,21.43
2022-12-18T21:08:45.334Z,24.43
2022-12-18T21:11:36.504Z,21.83
2022-12-18T21:14:05.228Z,20.77
2022-12-18T21:16:32.349Z,20.87
2022-12-18T21:18:59.233Z,22.27
2022-12-18T21:21:27.132Z,22.67
2022-12-18T21:23:54.962Z,21.20
2022-12-18T21:26:27.291Z,22.53
2022-12-18T21:29:06.973Z,23.27
2022-12-18T21:31:36.706Z,23.97
2022-12-18T21:34:04.351Z,20.37
2022-12-18T21:36:32.820Z,20.87
2022-12-18T21:39:00.331Z,18.90
2022-12-18T21:41:46.806Z,21.20
2022-12-18T21:44:15.882Z,20.83
2022-12-18T21:46:47.064Z,24.13
2022-12-18T21:49:18.120Z,24.30
2022-12-18T21:51:46.199Z,23.67
2022-12-18T21:54:12.960Z,21.67
2022-12-18T21:56:49.009Z,23.20
2022-12-18T21:59:38.109Z,21.57
2022-12-18T22:02:14.468Z,20.67
2022-12-18T22:04:42.954Z,24.33
2022-12-18T22:07:10.314Z,25.03
2022-12-18T22:09:38.502Z,20.97
2022-12-18T22:12:05.814Z,22.43
2022-12-18T22:14:32.703Z,23.57
2022-12-18T22:16:59.685Z,23.80
2022-12-18T22:19:27.022Z,23.90
2022-12-18T22:21:54.425Z,21.50
2022-12-18T22:24:26.599Z,23.13
2022-12-18T22:27:01.705Z,21.57
2022-12-18T22:29:48.016Z,24.63
2022-12-18T22:32:25.600Z,24.30
2022-12-18T22:35:09.424Z,23.27
2022-12-18T22:37:37.724Z,21.80
2022-12-18T22:40:05.978Z,23.67
2022-12-18T22:42:34.408Z,20.73
2022-12-18T22:45:01.231Z,23.47
2022-12-18T22:47:30.071Z,22.40
2022-12-18T22:49:57.967Z,23.37
2022-12-18T22:52:25.282Z,22.57
2022-12-18T22:54:53.379Z,23.53
2022-12-18T22:57:24.294Z,21.60
2022-12-18T22:59:51.757Z,23.43
2022-12-18T23:02:19.314Z,26.03
2022-12-18T23:04:47.414Z,25.10
2022-12-18T23:07:14.509Z,24.17
2022-12-18T23:09:41.521Z,23.10
2022-12-18T23:12:15.058Z,21.90
2022-12-18T23:14:42.665Z,22.03
2022-12-18T23:17:09.539Z,21.60
2022-12-18T23:19:36.714Z,25.37
2022-12-18T23:22:08.574Z,21.63
2022-12-18T23:24:38.288Z,23.97
2022-12-18T23:27:06.538Z,23.83
2022-12-18T23:29:38.593Z,22.33
2022-12-18T23:32:05.357Z,21.00
2022-12-18T23:34:32.341Z,21.13
2022-12-18T23:36:59.110Z,23.70
2022-12-18T23:39:29.607Z,24.07
2022-12-18T23:42:00.925Z,25.13
2022-12-18T23:44:28.399Z,25.50
2022-12-18T23:46:55.407Z,25.13
2022-12-18T23:49:22.543Z,25.73
2022-12-18T23:51:49.517Z,23.00
2022-12-18T23:54:16.455Z,22.97
2022-12-18T23:56:43.580Z,24.03
2022-12-18T23:59:10.502Z,23.77
